Terminal Aerodrome Forecast
Issued by NWS Indianapolis, IN

Home | Current Version | Previous Version | Text Only | Print | Product List | Glossary On
Versions: 1 2 3 4 5 6 7 8 9 10 11 12 13 14 15 16 17 18 19 20 21 22 23
000
FTUS43 KIND 290520
TAFIND
TAF
KIND 290520Z 2906/3012 31010KT P6SM VCTS SCT070 SCT120 BKN250CB
     FM290700 26002KT 4SM BR BKN250
     FM291400 25003KT P6SM BKN025
     FM291700 26006KT P6SM VCTS BKN050CB=

USA.gov is the U.S. government's official web portal to all federal, state and local government web resources and services.